createdAt,value
2023-01-10T00:01:07.949Z,100046.38
2023-01-10T00:03:35.972Z,100056.44
2023-01-10T00:06:03.897Z,100054.06
2023-01-10T00:08:33.115Z,100051.63
2023-01-10T00:11:21.745Z,100058.19
2023-01-10T00:13:48.441Z,100058.19
2023-01-10T00:16:16.265Z,100070.19
2023-01-10T00:18:44.040Z,100073.13
2023-01-10T00:21:14.739Z,100082.72
2023-01-10T00:23:44.325Z,100096.03
2023-01-10T00:26:12.538Z,100106.03
2023-01-10T00:28:40.295Z,100115.25
2023-01-10T00:31:08.346Z,100121.00
2023-01-10T00:33:36.522Z,100132.50
2023-01-10T00:36:05.970Z,100130.06
2023-01-10T00:38:35.143Z,100147.19
2023-01-10T00:41:24.444Z,100151.09
2023-01-10T00:43:56.904Z,100157.44
2023-01-10T00:46:24.858Z,100161.75
2023-01-10T00:48:52.827Z,100167.22
2023-01-10T00:51:21.025Z,100169.84
2023-01-10T00:53:48.903Z,100180.38
2023-01-10T00:56:18.025Z,100183.13
2023-01-10T00:58:45.961Z,100183.63
2023-01-10T01:01:13.971Z,100188.06
2023-01-10T01:03:41.796Z,100186.66
2023-01-10T01:06:10.075Z,100188.56
2023-01-10T01:08:37.880Z,100197.50
2023-01-10T01:11:06.003Z,100205.53
2023-01-10T01:13:36.294Z,100198.69
2023-01-10T01:16:04.232Z,100212.59
2023-01-10T01:18:32.435Z,100232.47
2023-01-10T01:21:03.563Z,100230.56
2023-01-10T01:23:31.833Z,100243.06
2023-01-10T01:25:59.568Z,100246.88
2023-01-10T01:28:27.594Z,100254.97
2023-01-10T01:30:56.887Z,100269.41
2023-01-10T01:33:24.752Z,100286.63
2023-01-10T01:35:52.516Z,100288.91
2023-01-10T01:38:20.275Z,100283.34
2023-01-10T01:40:48.028Z,100283.34
2023-01-10T01:43:26.375Z,100299.22
2023-01-10T01:45:56.766Z,100298.13
2023-01-10T01:48:31.551Z,100295.47
2023-01-10T01:51:05.651Z,100301.88
2023-01-10T01:53:36.635Z,100312.28
2023-01-10T01:56:08.759Z,100309.44
2023-01-10T01:58:41.153Z,100317.25
2023-01-10T02:01:11.158Z,100314.22
2023-01-10T02:03:39.354Z,100302.81
2023-01-10T02:06:08.111Z,100307.13
2023-01-10T02:08:36.280Z,100309.78
2023-01-10T02:11:08.739Z,100315.47
2023-01-10T02:13:39.808Z,100323.91
2023-01-10T02:16:08.177Z,100315.38
2023-01-10T02:18:38.960Z,100320.31
2023-01-10T02:21:28.572Z,100331.69
2023-01-10T02:24:20.876Z,100333.34
2023-01-10T02:27:09.626Z,100339.03
2023-01-10T02:30:18.135Z,100338.19
2023-01-10T02:33:00.532Z,100335.28
2023-01-10T02:35:51.863Z,100338.00
2023-01-10T02:38:29.006Z,100336.47
2023-01-10T02:41:03.368Z,100337.28
2023-01-10T02:43:34.609Z,100344.06
2023-01-10T02:46:04.954Z,100339.94
2023-01-10T02:48:34.161Z,100343.28
2023-01-10T02:51:04.689Z,100337.50
2023-01-10T02:53:37.232Z,100347.13
2023-01-10T02:56:49.789Z,100340.19
2023-01-10T02:59:43.556Z,100345.56
2023-01-10T03:02:16.662Z,100353.81
2023-01-10T03:04:53.981Z,100357.47
2023-01-10T03:07:27.637Z,100364.72
2023-01-10T03:09:56.382Z,100370.94
2023-01-10T03:12:26.983Z,100362.28
2023-01-10T03:14:55.631Z,100361.03
2023-01-10T03:17:24.168Z,100363.03
2023-01-10T03:19:55.958Z,100367.38
2023-01-10T03:22:25.283Z,100372.25
2023-01-10T03:24:55.937Z,100359.28
2023-01-10T03:27:28.594Z,100380.72
2023-01-10T03:30:01.542Z,100380.44
2023-01-10T03:32:31.443Z,100384.00
2023-01-10T03:35:01.496Z,100394.91
2023-01-10T03:37:35.884Z,100392.63
2023-01-10T03:40:09.886Z,100390.50
2023-01-10T03:42:58.671Z,100393.16
2023-01-10T03:45:30.520Z,100401.50
2023-01-10T03:48:00.243Z,100401.59
2023-01-10T03:50:30.211Z,100408.59
2023-01-10T03:52:58.440Z,100415.28
2023-01-10T03:55:28.637Z,100423.25
2023-01-10T03:57:56.516Z,100420.41
2023-01-10T04:00:24.490Z,100417.25
2023-01-10T04:02:52.360Z,100429.47
2023-01-10T04:05:20.304Z,100421.44
2023-01-10T04:07:49.771Z,100434.78
2023-01-10T04:10:18.072Z,100433.16
2023-01-10T04:12:46.019Z,100438.06
2023-01-10T04:15:13.977Z,100450.38
2023-01-10T04:17:41.782Z,100451.84
2023-01-10T04:20:11.444Z,100461.91
2023-01-10T04:22:40.158Z,100465.59
2023-01-10T04:25:10.341Z,100454.38
2023-01-10T04:27:38.141Z,100464.19
2023-01-10T04:30:07.116Z,100474.25
2023-01-10T04:32:34.747Z,100472.75
2023-01-10T04:35:02.737Z,100486.84
2023-01-10T04:37:30.626Z,100485.94
2023-01-10T04:39:58.432Z,100484.75
2023-01-10T04:42:28.155Z,100483.75
2023-01-10T04:44:55.985Z,100482.22
2023-01-10T04:47:24.819Z,100488.00
2023-01-10T04:49:52.775Z,100489.75
2023-01-10T04:52:20.891Z,100489.53
2023-01-10T04:54:48.650Z,100490.53
2023-01-10T04:57:16.444Z,100493.53
2023-01-10T04:59:45.900Z,100496.28
2023-01-10T05:02:13.836Z,100494.00
2023-01-10T05:04:41.729Z,100506.28
2023-01-10T05:07:09.725Z,100501.78
2023-01-10T05:09:37.559Z,100506.13
2023-01-10T05:12:05.849Z,100506.38
2023-01-10T05:14:33.820Z,100508.75
2023-01-10T05:17:03.167Z,100507.81
2023-01-10T05:19:30.962Z,100508.75
2023-01-10T05:21:58.895Z,100521.63
2023-01-10T05:24:26.873Z,100525.91
2023-01-10T05:26:54.826Z,100536.22
2023-01-10T05:29:24.518Z,100536.22
2023-01-10T05:31:52.916Z,100550.03
2023-01-10T05:34:22.393Z,100550.69
2023-01-10T05:36:50.328Z,100562.19
2023-01-10T05:39:18.115Z,100568.22
2023-01-10T05:41:45.977Z,100566.88
2023-01-10T05:44:14.889Z,100566.19
2023-01-10T05:46:42.760Z,100566.25
2023-01-10T05:49:10.680Z,100573.53
2023-01-10T05:51:41.020Z,100568.81
2023-01-10T05:54:09.020Z,100567.91
2023-01-10T05:56:38.732Z,100571.38
2023-01-10T05:59:14.230Z,100574.69
2023-01-10T06:01:44.954Z,100585.13
2023-01-10T06:04:12.885Z,100596.88
2023-01-10T06:06:42.346Z,100596.69
2023-01-10T06:09:10.279Z,100606.31
2023-01-10T06:11:38.914Z,100596.97
2023-01-10T06:14:08.324Z,100599.94
2023-01-10T06:16:36.329Z,100608.72
2023-01-10T06:19:04.278Z,100613.03
2023-01-10T06:21:32.049Z,100614.31
2023-01-10T06:24:01.381Z,100614.53
2023-01-10T06:26:29.311Z,100615.16
2023-01-10T06:28:58.313Z,100627.31
2023-01-10T06:31:26.350Z,100627.03
2023-01-10T06:33:54.485Z,100620.78
2023-01-10T06:36:22.368Z,100628.13
2023-01-10T06:38:50.151Z,100628.47
2023-01-10T06:41:19.779Z,100620.81
2023-01-10T06:43:48.775Z,100624.88
2023-01-10T06:46:18.222Z,100635.00
2023-01-10T06:48:46.892Z,100645.09
2023-01-10T06:51:17.556Z,100652.06
2023-01-10T06:53:46.585Z,100653.38
2023-01-10T06:56:14.503Z,100669.91
2023-01-10T06:58:43.685Z,100657.38
2023-01-10T07:01:16.355Z,100661.03
2023-01-10T07:03:44.422Z,100659.25
2023-01-10T07:06:12.179Z,100655.41
2023-01-10T07:08:40.844Z,100672.72
2023-01-10T07:11:09.390Z,100679.28
2023-01-10T07:13:38.351Z,100680.47
2023-01-10T07:16:10.859Z,100681.94
2023-01-10T07:18:40.214Z,100680.63
2023-01-10T07:21:08.399Z,100686.53
2023-01-10T07:23:36.626Z,100682.19
2023-01-10T07:26:08.421Z,100686.81
2023-01-10T07:28:36.332Z,100690.44
2023-01-10T07:31:05.712Z,100702.34
2023-01-10T07:33:35.177Z,100702.00
2023-01-10T07:36:03.718Z,100707.16
2023-01-10T07:38:31.509Z,100711.31
2023-01-10T07:40:59.336Z,100732.16
2023-01-10T07:43:27.164Z,100734.81
2023-01-10T07:45:54.983Z,100738.97
2023-01-10T07:48:23.139Z,100730.00
2023-01-10T07:50:56.981Z,100733.50
2023-01-10T07:53:25.136Z,100727.16
2023-01-10T07:55:53.065Z,100740.44
2023-01-10T07:58:21.232Z,100742.09
2023-01-10T08:00:50.809Z,100754.41
2023-01-10T08:03:19.201Z,100759.72
2023-01-10T08:05:47.137Z,100760.34
2023-01-10T08:08:17.358Z,100770.34
2023-01-10T08:10:45.169Z,100771.13
2023-01-10T08:13:18.841Z,100773.00
2023-01-10T08:15:47.294Z,100770.50
2023-01-10T08:18:15.220Z,100767.00
2023-01-10T08:20:43.307Z,100771.66
2023-01-10T08:23:10.953Z,100768.47
2023-01-10T08:25:40.187Z,100770.63
2023-01-10T08:28:08.067Z,100770.63
2023-01-10T08:30:36.073Z,100774.06
2023-01-10T08:33:04.490Z,100772.41
2023-01-10T08:35:32.351Z,100777.38
2023-01-10T08:38:00.850Z,100784.81
2023-01-10T08:40:28.837Z,100783.81
2023-01-10T08:43:02.125Z,100779.81
2023-01-10T08:45:30.397Z,100784.09
2023-01-10T08:47:58.411Z,100770.16
2023-01-10T08:50:26.761Z,100785.53
2023-01-10T08:52:54.572Z,100781.88
2023-01-10T08:55:22.487Z,100796.06
2023-01-10T08:57:50.453Z,100793.94
2023-01-10T09:00:21.084Z,100801.38
2023-01-10T09:03:02.719Z,100810.81
2023-01-10T09:05:30.763Z,100807.03
2023-01-10T09:08:03.208Z,100808.09
2023-01-10T09:10:31.079Z,100805.78
2023-01-10T09:13:01.271Z,100812.56
2023-01-10T09:15:32.063Z,100816.91
2023-01-10T09:18:01.497Z,100825.06
2023-01-10T09:20:30.489Z,100812.75
2023-01-10T09:22:58.485Z,100810.78
2023-01-10T09:25:26.746Z,100809.94
2023-01-10T09:27:59.012Z,100806.75
2023-01-10T09:30:27.906Z,100818.00
2023-01-10T09:32:58.849Z,100812.94
2023-01-10T09:35:28.607Z,100821.41
2023-01-10T09:37:57.192Z,100827.47
2023-01-10T09:40:33.354Z,100824.59
2023-01-10T09:43:09.611Z,100830.69
2023-01-10T09:45:40.849Z,100827.38
2023-01-10T09:48:16.088Z,100832.69
2023-01-10T09:50:49.607Z,100841.31
2023-01-10T09:53:20.747Z,100845.94
2023-01-10T09:55:53.521Z,100850.75
2023-01-10T09:58:22.112Z,100857.63
2023-01-10T10:00:52.347Z,100865.47
2023-01-10T10:03:25.397Z,100855.88
2023-01-10T10:06:00.877Z,100854.91
2023-01-10T10:08:35.172Z,100855.97
2023-01-10T10:11:12.650Z,100858.63
2023-01-10T10:13:50.462Z,100860.88
2023-01-10T10:16:26.860Z,100861.22
2023-01-10T10:19:03.176Z,100860.88
2023-01-10T10:21:37.688Z,100856.63
2023-01-10T10:24:25.861Z,100855.53
2023-01-10T10:26:59.280Z,100859.75
2023-01-10T10:30:12.202Z,100868.03
2023-01-10T10:32:52.931Z,100851.50
2023-01-10T10:35:28.347Z,100851.31
2023-01-10T10:37:58.860Z,100853.97
2023-01-10T10:40:29.861Z,100847.72
2023-01-10T10:42:58.806Z,100847.81
2023-01-10T10:45:39.599Z,100845.34
2023-01-10T10:48:14.876Z,100857.28
2023-01-10T10:50:50.304Z,100854.81
2023-01-10T10:53:19.190Z,100859.00
2023-01-10T10:55:47.157Z,100847.88
2023-01-10T10:58:15.875Z,100844.09
2023-01-10T11:00:43.890Z,100848.56
2023-01-10T11:03:23.161Z,100848.44
2023-01-10T11:05:52.921Z,100846.03
2023-01-10T11:08:22.287Z,100836.72
2023-01-10T11:10:51.424Z,100840.22
2023-01-10T11:13:25.190Z,100834.16
2023-01-10T11:15:56.082Z,100834.69
2023-01-10T11:18:25.807Z,100824.53
2023-01-10T11:20:58.954Z,100827.22
2023-01-10T11:23:35.346Z,100828.63
2023-01-10T11:26:03.605Z,100827.22
2023-01-10T11:28:33.194Z,100816.28
2023-01-10T11:31:01.750Z,100822.78
2023-01-10T11:33:32.272Z,100826.34
2023-01-10T11:36:03.966Z,100822.94
2023-01-10T11:38:32.514Z,100816.63
2023-01-10T11:41:02.143Z,100828.25
2023-01-10T11:43:33.830Z,100826.19
2023-01-10T11:46:03.445Z,100827.22
2023-01-10T11:49:10.878Z,100831.25
2023-01-10T11:51:39.874Z,100816.38
2023-01-10T11:54:08.967Z,100814.44
2023-01-10T11:56:40.035Z,100818.28
2023-01-10T11:59:14.016Z,100810.97
2023-01-10T12:01:44.341Z,100814.94
2023-01-10T12:04:15.826Z,100815.25
2023-01-10T12:06:47.765Z,100813.88
2023-01-10T12:09:37.076Z,100810.53
2023-01-10T12:12:06.297Z,100817.44
2023-01-10T12:14:34.021Z,100817.97
2023-01-10T12:17:02.704Z,100815.59
2023-01-10T12:19:30.858Z,100816.81
2023-01-10T12:22:03.617Z,100811.22
2023-01-10T12:24:35.129Z,100818.34
2023-01-10T12:27:04.190Z,100815.78
2023-01-10T12:29:36.240Z,100817.38
2023-01-10T12:32:06.631Z,100811.84
2023-01-10T12:34:40.690Z,100821.47
2023-01-10T12:37:18.978Z,100817.19
2023-01-10T12:39:48.677Z,100815.38
2023-01-10T12:42:43.627Z,100810.91
2023-01-10T12:45:15.050Z,100814.78
2023-01-10T12:47:53.661Z,100799.34
2023-01-10T12:50:25.040Z,100795.66
2023-01-10T12:53:01.299Z,100802.44
2023-01-10T12:55:31.564Z,100796.22
2023-01-10T12:58:01.035Z,100790.91
2023-01-10T13:00:37.648Z,100792.44
2023-01-10T13:03:13.438Z,100786.34
2023-01-10T13:05:42.242Z,100773.97
2023-01-10T13:08:14.285Z,100781.78
2023-01-10T13:10:44.005Z,100772.75
2023-01-10T13:13:18.433Z,100770.34
2023-01-10T13:15:50.021Z,100769.59
2023-01-10T13:18:21.212Z,100770.28
2023-01-10T13:20:49.227Z,100764.38
2023-01-10T13:23:27.191Z,100762.41
2023-01-10T13:26:01.205Z,100753.84
2023-01-10T13:28:30.691Z,100757.53
2023-01-10T13:31:01.282Z,100751.81
2023-01-10T13:33:31.039Z,100757.53
2023-01-10T13:36:00.635Z,100757.41
2023-01-10T13:38:38.497Z,100740.78
2023-01-10T13:41:07.645Z,100751.44
2023-01-10T13:44:00.663Z,100745.72
2023-01-10T13:46:42.916Z,100737.72
2023-01-10T13:49:47.633Z,100731.41
2023-01-10T13:52:36.336Z,100725.16
2023-01-10T13:55:26.249Z,100725.66
2023-01-10T13:57:55.550Z,100715.00
2023-01-10T14:00:42.994Z,100705.75
2023-01-10T14:03:50.295Z,100711.66
2023-01-10T14:06:43.419Z,100710.06
2023-01-10T14:09:31.340Z,100697.75
2023-01-10T14:12:01.745Z,100700.78
2023-01-10T14:14:32.868Z,100693.66
2023-01-10T14:17:13.714Z,100689.94
2023-01-10T14:19:43.273Z,100687.09
2023-01-10T14:22:26.812Z,100689.94
2023-01-10T14:24:55.220Z,100693.25
2023-01-10T14:27:25.020Z,100692.63
2023-01-10T14:29:54.929Z,100683.16
2023-01-10T14:32:32.310Z,100673.03
2023-01-10T14:35:04.625Z,100670.00
2023-01-10T14:37:37.576Z,100661.84
2023-01-10T14:40:08.909Z,100664.03
2023-01-10T14:42:38.828Z,100664.75
2023-01-10T14:45:19.739Z,100655.59
2023-01-10T14:47:49.513Z,100646.00
2023-01-10T14:50:26.139Z,100650.50
2023-01-10T14:52:54.006Z,100642.47
2023-01-10T14:55:21.790Z,100652.31
2023-01-10T14:57:58.865Z,100637.19
2023-01-10T15:00:28.669Z,100642.69
2023-01-10T15:02:57.627Z,100636.69
2023-01-10T15:05:27.157Z,100629.97
2023-01-10T15:07:55.555Z,100629.97
2023-01-10T15:10:25.983Z,100629.72
2023-01-10T15:12:55.731Z,100617.28
2023-01-10T15:15:29.797Z,100625.41
2023-01-10T15:17:57.819Z,100619.44
2023-01-10T15:20:25.961Z,100602.13
2023-01-10T15:22:57.532Z,100605.41
2023-01-10T15:25:28.614Z,100608.28
2023-01-10T15:27:57.708Z,100611.94
2023-01-10T15:30:28.820Z,100605.84
2023-01-10T15:32:58.465Z,100594.66
2023-01-10T15:35:36.043Z,100592.69
2023-01-10T15:38:07.347Z,100586.97
2023-01-10T15:40:37.157Z,100584.13
2023-01-10T15:43:24.326Z,100585.78
2023-01-10T15:45:55.816Z,100577.09
2023-01-10T15:48:32.804Z,100578.88
2023-01-10T15:51:04.075Z,100574.88
2023-01-10T15:53:51.134Z,100577.44
2023-01-10T15:56:20.994Z,100569.88
2023-01-10T15:58:49.770Z,100560.06
2023-01-10T16:01:19.112Z,100547.78
2023-01-10T16:03:51.127Z,100553.31
2023-01-10T16:06:23.097Z,100554.53
2023-01-10T16:08:53.198Z,100553.06
2023-01-10T16:11:38.578Z,100536.94
2023-01-10T16:14:06.554Z,100539.28
2023-01-10T16:16:36.120Z,100535.03
2023-01-10T16:19:04.279Z,100530.75
2023-01-10T16:21:36.323Z,100529.09
2023-01-10T16:24:05.562Z,100527.09
2023-01-10T16:26:34.165Z,100516.00
2023-01-10T16:29:01.942Z,100524.63
2023-01-10T16:31:29.794Z,100519.44
2023-01-10T16:33:59.141Z,100521.47
2023-01-10T16:36:27.102Z,100518.19
2023-01-10T16:38:54.765Z,100505.63
2023-01-10T16:41:40.396Z,100500.69
2023-01-10T16:44:08.197Z,100491.69
2023-01-10T16:46:36.080Z,100485.09
2023-01-10T16:49:06.623Z,100482.69
2023-01-10T16:51:34.764Z,100483.06
2023-01-10T16:54:02.888Z,100479.44
2023-01-10T16:56:31.195Z,100481.81
2023-01-10T16:58:59.450Z,100478.97
2023-01-10T17:01:30.471Z,100472.00
2023-01-10T17:03:58.952Z,100468.38
2023-01-10T17:06:28.775Z,100465.41
2023-01-10T17:08:56.637Z,100470.97
2023-01-10T17:11:28.848Z,100472.06
2023-01-10T17:13:57.021Z,100470.56
2023-01-10T17:16:24.940Z,100475.41
2023-01-10T17:18:52.849Z,100469.78
2023-01-10T17:21:22.470Z,100468.75
2023-01-10T17:23:52.104Z,100466.00
2023-01-10T17:26:20.992Z,100457.13
2023-01-10T17:28:49.901Z,100451.09
2023-01-10T17:31:19.829Z,100429.38
2023-01-10T17:33:49.142Z,100424.91
2023-01-10T17:36:19.088Z,100416.59
2023-01-10T17:38:47.170Z,100400.00
2023-01-10T17:41:16.545Z,100391.00
2023-01-10T17:43:44.181Z,100389.53
2023-01-10T17:46:12.773Z,100382.41
2023-01-10T17:48:40.792Z,100371.31
2023-01-10T17:51:09.928Z,100373.25
2023-01-10T17:53:37.622Z,100362.38
2023-01-10T17:56:07.465Z,100356.00
2023-01-10T17:58:38.041Z,100350.22
2023-01-10T18:01:06.291Z,100342.88
2023-01-10T18:03:34.363Z,100337.19
2023-01-10T18:06:02.070Z,100331.34
2023-01-10T18:08:30.583Z,100322.91
2023-01-10T18:11:01.710Z,100318.25
2023-01-10T18:13:31.598Z,100301.47
2023-01-10T18:16:01.871Z,100308.56
2023-01-10T18:18:30.706Z,100311.47
2023-01-10T18:21:02.054Z,100304.75
2023-01-10T18:23:33.757Z,100302.28
2023-01-10T18:26:03.480Z,100291.00
2023-01-10T18:28:40.932Z,100293.28
2023-01-10T18:31:11.708Z,100277.44
2023-01-10T18:33:40.095Z,100271.13
2023-01-10T18:36:09.390Z,100268.72
2023-01-10T18:38:38.413Z,100261.19
2023-01-10T18:41:06.587Z,100243.91
2023-01-10T18:43:34.630Z,100245.38
2023-01-10T18:46:04.401Z,100241.50
2023-01-10T18:48:33.911Z,100234.75
2023-01-10T18:51:03.816Z,100221.81
2023-01-10T18:53:32.006Z,100218.53
2023-01-10T18:56:01.212Z,100218.41
2023-01-10T18:58:32.877Z,100221.00
2023-01-10T19:01:06.202Z,100210.19
2023-01-10T19:03:35.606Z,100209.16
2023-01-10T19:06:04.703Z,100210.59
2023-01-10T19:08:32.826Z,100209.00
2023-01-10T19:11:13.020Z,100202.63
2023-01-10T19:13:42.853Z,100205.34
2023-01-10T19:16:12.075Z,100202.44
2023-01-10T19:18:41.570Z,100206.63
2023-01-10T19:21:15.341Z,100195.63
2023-01-10T19:23:43.560Z,100192.34
2023-01-10T19:26:11.409Z,100189.41
2023-01-10T19:28:39.232Z,100195.63
2023-01-10T19:31:07.106Z,100207.50
2023-01-10T19:33:37.575Z,100191.75
2023-01-10T19:36:08.445Z,100179.34
2023-01-10T19:38:36.335Z,100181.53
2023-01-10T19:41:04.620Z,100175.63
2023-01-10T19:43:33.762Z,100177.31
2023-01-10T19:46:01.873Z,100171.13
2023-01-10T19:48:29.843Z,100161.38
2023-01-10T19:50:57.789Z,100147.84
2023-01-10T19:53:27.180Z,100151.50
2023-01-10T19:56:01.902Z,100148.28
2023-01-10T19:58:30.203Z,100147.56
2023-01-10T20:00:58.111Z,100158.59
2023-01-10T20:03:26.087Z,100143.00
2023-01-10T20:05:53.877Z,100131.97
2023-01-10T20:08:23.411Z,100126.88
2023-01-10T20:10:52.390Z,100136.06
2023-01-10T20:13:20.339Z,100122.16
2023-01-10T20:15:48.436Z,100120.56
2023-01-10T20:18:16.276Z,100138.56
2023-01-10T20:20:44.674Z,100129.53
2023-01-10T20:23:12.787Z,100118.91
2023-01-10T20:25:40.529Z,100119.50
2023-01-10T20:28:09.637Z,100129.16
2023-01-10T20:30:37.928Z,100132.72
2023-01-10T20:33:05.822Z,100122.22
2023-01-10T20:35:33.579Z,100125.31
2023-01-10T20:38:06.452Z,100124.28
2023-01-10T20:40:34.175Z,100118.94
2023-01-10T20:43:01.913Z,100113.69
2023-01-10T20:45:31.179Z,100123.94
2023-01-10T20:47:58.911Z,100121.88
2023-01-10T20:50:26.685Z,100103.03
2023-01-10T20:52:54.447Z,100108.56
2023-01-10T20:55:22.431Z,100097.31
2023-01-10T20:57:50.182Z,100098.94
2023-01-10T21:00:19.136Z,100097.88
2023-01-10T21:02:48.074Z,100104.63
2023-01-10T21:05:15.655Z,100102.38
2023-01-10T21:07:43.563Z,100087.22
2023-01-10T21:10:12.317Z,100077.19
2023-01-10T21:12:40.371Z,100072.03
2023-01-10T21:15:09.260Z,100079.19
2023-01-10T21:17:40.125Z,100073.47
2023-01-10T21:20:11.929Z,100071.00
2023-01-10T21:22:39.707Z,100076.56
2023-01-10T21:25:08.168Z,100056.69
2023-01-10T21:27:35.827Z,100059.34
2023-01-10T21:30:06.251Z,100038.88
2023-01-10T21:32:34.076Z,100035.78
2023-01-10T21:35:01.878Z,100037.44
2023-01-10T21:37:31.165Z,100040.72
2023-01-10T21:39:59.799Z,100027.22
2023-01-10T21:42:38.051Z,100032.13
2023-01-10T21:45:08.379Z,100035.47
2023-01-10T21:47:36.958Z,100030.53
2023-01-10T21:50:05.779Z,100016.00
2023-01-10T21:52:35.429Z,100009.03
2023-01-10T21:55:03.615Z,100009.22
2023-01-10T21:57:31.426Z,100017.41
2023-01-10T21:59:59.596Z,100024.59
2023-01-10T22:02:29.869Z,100021.72
2023-01-10T22:04:57.988Z,100009.03
2023-01-10T22:07:27.962Z,100010.25
2023-01-10T22:09:57.186Z,99999.00
2023-01-10T22:12:25.772Z,99999.00
2023-01-10T22:14:53.444Z,99994.09
2023-01-10T22:17:21.287Z,99987.53
2023-01-10T22:19:49.087Z,99997.75
2023-01-10T22:22:17.438Z,99993.25
2023-01-10T22:24:48.008Z,99990.19
2023-01-10T22:27:17.598Z,99992.03
2023-01-10T22:29:45.677Z,99979.13
2023-01-10T22:32:13.580Z,99995.31
2023-01-10T22:34:41.381Z,99975.84
2023-01-10T22:37:09.067Z,99984.66
2023-01-10T22:39:37.053Z,99978.50
2023-01-10T22:42:04.793Z,99985.66
2023-01-10T22:44:33.836Z,99979.53
2023-01-10T22:47:01.513Z,99975.22
2023-01-10T22:49:29.292Z,99968.25
2023-01-10T22:51:57.094Z,99957.16
2023-01-10T22:54:24.981Z,99967.44
2023-01-10T22:56:52.933Z,99958.41
2023-01-10T22:59:20.511Z,99961.28
2023-01-10T23:01:49.791Z,99949.81
2023-01-10T23:04:20.248Z,99955.16
2023-01-10T23:06:48.596Z,99948.78
2023-01-10T23:09:16.468Z,99940.78
2023-01-10T23:11:44.242Z,99944.47
2023-01-10T23:14:12.058Z,99944.22
2023-01-10T23:16:40.139Z,99937.47
2023-01-10T23:19:09.375Z,99934.19
2023-01-10T23:21:37.304Z,99936.84
2023-01-10T23:24:05.550Z,99927.19
2023-01-10T23:26:33.061Z,99921.47
2023-01-10T23:29:01.615Z,99916.75
2023-01-10T23:31:29.982Z,99914.03
2023-01-10T23:33:58.065Z,99916.53
2023-01-10T23:36:27.339Z,99913.19
2023-01-10T23:38:55.147Z,99902.31
2023-01-10T23:41:22.944Z,99910.88
2023-01-10T23:43:51.528Z,99904.94
2023-01-10T23:46:19.188Z,99908.84
2023-01-10T23:48:48.358Z,99913.38
2023-01-10T23:51:16.320Z,99911.56
2023-01-10T23:53:45.447Z,99902.50
2023-01-10T23:56:15.055Z,99902.88
2023-01-10T23:58:43.020Z,99894.47
